Terminal Aerodrome Forecast
Issued by NWS

Home | Current Version | Previous Version | Text Only | Print | Product List | Glossary On
Versions: 1 2 3 4 5 6 7 8 9 10 11 12 13 14 15 16 17 18 19 20 21 22 23 24 25 26 27 28 29 30 31 32 33 34
000
FTPA31 PHFO 031700
TAFLIH
TAF
PHLI 031738Z 0318/0418 27005KT P6SM VCSH FEW020 BKN045 BKN070
     FM032000 16008KT P6SM VCSH SCT020 BKN040
      TEMPO 0323/0403 5SM SHRA BR BKN020
     FM040600 26005KT P6SM VCSH SCT020 BKN040=

USA.gov is the U.S. government's official web portal to all federal, state and local government web resources and services.